Hekiryumaru — JH3274 — position and weather

sailwx.info

Track history (hours):
 
Tides and Currents Weather Stations Pressure Air Temp Water Temp Dewpoint Dewpoint Depression Visibility Wind Speed Wind Dir Waves Ship Positions

Hekiryumaru

Last reported at 2017-Nov-12 15:24 UTC. Time now 2017-Nov-24 00:21 UTC.
Position N 34°57' E 139°29'.
Warning: this ship's position is 11 days out of date.

Length 115 m; draft 5 m.

Type: Cargo ship. MMSI: 431200271.

Date/timePositionNaut miles runAvg speedWind from/ knotsBaromVisibWave heightAir tempDewpointWater temp
2017-Nov-12 15:24N 34°57' E 139°29'614.5
2017-Nov-12 15:00N 35°01' E 139°34'814.9
2017-Nov-12 14:30N 35°05' E 139°41'714.6
2017-Nov-12 14:01N 35°12' E 139°45'510.9
2017-Nov-12 13:30N 35°17' E 139°45'713.1
2017-Nov-12 13:01N 35°23' E 139°42'5 8.8
2017-Nov-12 12:30N 35°28' E 139°43'0 0.0
2017-Nov-12 12:00N 35°28' E 139°43'0 0.1
2017-Nov-12 11:25N 35°28' E 139°43'0 0.1
2017-Nov-12 10:31N 35°28' E 139°43'0 0.6
2017-Nov-12 10:26N 35°28' E 139°43'0 0.1
2017-Nov-12 09:55N 35°28' E 139°43'0 0.0
2017-Nov-12 08:37N 35°28' E 139°43'0 0.0
2017-Nov-12 06:07N 35°28' E 139°43'0 0.0
2017-Nov-12 05:52N 35°28' E 139°43'1 2.0
2017-Nov-12 05:31N 35°27' E 139°43'5 9.0
2017-Nov-12 04:56N 35°29' E 139°49'3 0.4
2017-Nov-11 20:46N 35°30' E 139°52'413.4
2017-Nov-11 20:28N 35°27' E 139°49'613.1
2017-Nov-11 20:00N 35°22' E 139°45'612.1
2017-Nov-11 19:30N 35°16' E 139°47'612.8
2017-Nov-11 19:00N 35°09' E 139°46'713.1
2017-Nov-11 18:30N 35°04' E 139°42'  
2017-Nov-08 13:46N 35°12' E 139°46'311.7
2017-Nov-08 13:30N 35°15' E 139°46'612.6
2017-Nov-08 13:01N 35°21' E 139°42'714.0
2017-Nov-08 12:31N 35°28' E 139°43'0 0.1
2017-Nov-08 09:31N 35°28' E 139°43'0 0.0
2017-Nov-08 07:19N 35°28' E 139°43'0 0.0
2017-Nov-08 06:55N 35°28' E 139°43'0 0.0
2017-Nov-08 06:25N 35°28' E 139°43'0 0.0
2017-Nov-08 05:34N 35°28' E 139°43'0 0.5
2017-Nov-08 05:28N 35°28' E 139°43'2 4.7
2017-Nov-08 05:00N 35°27' E 139°45'611.6
2017-Nov-08 04:30N 35°30' E 139°52'1 0.1
2017-Nov-07 17:29N 35°31' E 139°53'714.4
2017-Nov-07 16:59N 35°25' E 139°48'613.1
2017-Nov-07 16:31N 35°20' E 139°44'612.4
2017-Nov-07 16:00N 35°14' E 139°47'  
2017-Nov-02 16:10N 34°56' E 139°29'213.9
2017-Nov-02 16:00N 34°58' E 139°32'714.5
2017-Nov-02 15:30N 35°03' E 139°38'  
Track history (hours):
 
Tides and Currents Weather Stations Pressure Air Temp Water Temp Dewpoint Dewpoint Depression Visibility Wind Speed Wind Dir Waves Ship Positions

Hekiryumaru

Last reported at 2017-Nov-12 15:24 UTC. Time now 2017-Nov-24 00:21 UTC.
Position N 34°57' E 139°29'.
Warning: this ship's position is 11 days out of date.

Length 115 m; draft 5 m.

Type: Cargo ship. MMSI: 431200271.

Date/timePositionNaut miles runAvg speedWind from/ knotsBaromVisibWave heightAir tempDewpointWater temp
2017-Nov-12 15:24N 34°57' E 139°29'614.5
2017-Nov-12 15:00N 35°01' E 139°34'814.9
2017-Nov-12 14:30N 35°05' E 139°41'714.6
2017-Nov-12 14:01N 35°12' E 139°45'510.9
2017-Nov-12 13:30N 35°17' E 139°45'713.1
2017-Nov-12 13:01N 35°23' E 139°42'5 8.8
2017-Nov-12 12:30N 35°28' E 139°43'0 0.0
2017-Nov-12 12:00N 35°28' E 139°43'0 0.1
2017-Nov-12 11:25N 35°28' E 139°43'0 0.1
2017-Nov-12 10:31N 35°28' E 139°43'0 0.6
2017-Nov-12 10:26N 35°28' E 139°43'0 0.1
2017-Nov-12 09:55N 35°28' E 139°43'0 0.0
2017-Nov-12 08:37N 35°28' E 139°43'0 0.0
2017-Nov-12 06:07N 35°28' E 139°43'0 0.0
2017-Nov-12 05:52N 35°28' E 139°43'1 2.0
2017-Nov-12 05:31N 35°27' E 139°43'5 9.0
2017-Nov-12 04:56N 35°29' E 139°49'3 0.4
2017-Nov-11 20:46N 35°30' E 139°52'413.4
2017-Nov-11 20:28N 35°27' E 139°49'613.1
2017-Nov-11 20:00N 35°22' E 139°45'612.1
2017-Nov-11 19:30N 35°16' E 139°47'612.8
2017-Nov-11 19:00N 35°09' E 139°46'713.1
2017-Nov-11 18:30N 35°04' E 139°42'  
2017-Nov-08 13:46N 35°12' E 139°46'311.7
2017-Nov-08 13:30N 35°15' E 139°46'612.6
2017-Nov-08 13:01N 35°21' E 139°42'714.0
2017-Nov-08 12:31N 35°28' E 139°43'0 0.1
2017-Nov-08 09:31N 35°28' E 139°43'0 0.0
2017-Nov-08 07:19N 35°28' E 139°43'0 0.0
2017-Nov-08 06:55N 35°28' E 139°43'0 0.0
2017-Nov-08 06:25N 35°28' E 139°43'0 0.0
2017-Nov-08 05:34N 35°28' E 139°43'0 0.5
2017-Nov-08 05:28N 35°28' E 139°43'2 4.7
2017-Nov-08 05:00N 35°27' E 139°45'611.6
2017-Nov-08 04:30N 35°30' E 139°52'1 0.1
2017-Nov-07 17:29N 35°31' E 139°53'714.4
2017-Nov-07 16:59N 35°25' E 139°48'613.1
2017-Nov-07 16:31N 35°20' E 139°44'612.4
2017-Nov-07 16:00N 35°14' E 139°47'  
2017-Nov-02 16:10N 34°56' E 139°29'213.9
2017-Nov-02 16:00N 34°58' E 139°32'714.5
2017-Nov-02 15:30N 35°03' E 139°38'  

Dump ship's entire track history